createdAt,value
2022-08-22T00:00:13.853Z,18.54
2022-08-22T00:01:13.838Z,18.54
2022-08-22T00:02:13.828Z,18.54
2022-08-22T00:02:49.418Z,20.76
2022-08-22T00:02:55.494Z,18.91
2022-08-22T00:02:56.170Z,22.96
2022-08-22T00:02:58.608Z,22.39
2022-08-22T00:03:15.416Z,18.97
2022-08-22T00:03:18.737Z,18.54
2022-08-22T00:04:14.802Z,18.50
2022-08-22T00:05:13.698Z,18.47
2022-08-22T00:06:13.689Z,18.49
2022-08-22T00:07:13.692Z,18.46
2022-08-22T00:08:13.721Z,18.44
2022-08-22T00:09:13.661Z,18.43
2022-08-22T00:10:20.993Z,18.42
2022-08-22T00:11:14.650Z,18.39
2022-08-22T00:12:13.609Z,18.37
2022-08-22T00:13:13.579Z,18.36
2022-08-22T00:14:13.581Z,18.34
2022-08-22T00:15:42.383Z,18.31
2022-08-22T00:16:14.577Z,18.29
2022-08-22T00:17:13.540Z,18.29
2022-08-22T00:18:13.591Z,18.29
2022-08-22T00:19:13.594Z,18.29
2022-08-22T00:20:13.598Z,18.29
2022-08-22T00:21:13.543Z,18.27
2022-08-22T00:22:13.509Z,18.22
2022-08-22T00:23:13.560Z,18.15
2022-08-22T00:24:13.497Z,18.07
2022-08-22T00:25:24.612Z,18.04
2022-08-22T00:26:14.421Z,18.03
2022-08-22T00:27:13.404Z,18.02
2022-08-22T00:28:13.412Z,17.99
2022-08-22T00:29:13.415Z,17.99
2022-08-22T00:30:13.362Z,18.03
2022-08-22T00:31:13.386Z,18.04
2022-08-22T00:32:13.343Z,18.03
2022-08-22T00:33:13.361Z,18.00
2022-08-22T00:34:13.324Z,17.99
2022-08-22T00:35:13.405Z,17.95
2022-08-22T00:36:13.294Z,17.92
2022-08-22T00:37:13.242Z,17.89
2022-08-22T00:38:13.290Z,17.88
2022-08-22T00:39:13.232Z,17.87
2022-08-22T00:40:13.251Z,17.87
2022-08-22T00:41:13.211Z,17.87
2022-08-22T00:42:13.200Z,17.88
2022-08-22T00:43:13.179Z,17.88
2022-08-22T00:44:13.160Z,17.87
2022-08-22T00:45:13.140Z,17.84
2022-08-22T00:46:13.140Z,17.84
2022-08-22T00:47:13.177Z,17.82
2022-08-22T00:48:14.590Z,17.82
2022-08-22T00:49:13.121Z,17.84
2022-08-22T00:50:13.096Z,17.84
2022-08-22T00:51:13.064Z,17.85
2022-08-22T00:52:13.064Z,17.85
2022-08-22T00:53:13.061Z,17.85
2022-08-22T00:54:17.797Z,17.85
2022-08-22T00:55:14.057Z,17.84
2022-08-22T00:56:13.036Z,17.82
2022-08-22T00:57:13.020Z,17.81
2022-08-22T00:58:12.989Z,17.81
2022-08-22T00:59:23.399Z,17.78
2022-08-22T01:00:13.944Z,17.78
2022-08-22T01:01:13.049Z,17.74
2022-08-22T01:02:12.950Z,17.74
2022-08-22T01:03:12.972Z,17.73
2022-08-22T01:04:12.894Z,17.70
2022-08-22T01:05:12.924Z,17.67
2022-08-22T01:06:12.874Z,17.67
2022-08-22T01:07:12.852Z,17.66
2022-08-22T01:08:12.909Z,17.64
2022-08-22T01:09:12.817Z,17.59
2022-08-22T01:10:12.855Z,17.57
2022-08-22T01:11:12.797Z,17.54
2022-08-22T01:12:12.848Z,17.51
2022-08-22T01:13:12.843Z,17.48
2022-08-22T01:14:12.786Z,17.46
2022-08-22T01:15:12.781Z,17.44
2022-08-22T01:16:12.773Z,17.44
2022-08-22T01:17:12.717Z,17.41
2022-08-22T01:18:12.722Z,17.41
2022-08-22T01:19:12.735Z,17.40
2022-08-22T01:20:12.671Z,17.40
2022-08-22T01:21:12.655Z,17.40
2022-08-22T01:22:12.672Z,17.38
2022-08-22T01:23:12.652Z,17.38
2022-08-22T01:24:12.625Z,17.38
2022-08-22T01:25:12.655Z,17.40
2022-08-22T01:26:12.606Z,17.40
2022-08-22T01:27:12.594Z,17.43
2022-08-22T01:28:12.603Z,17.43
2022-08-22T01:29:12.550Z,17.44
2022-08-22T01:30:12.589Z,17.43
2022-08-22T01:31:12.549Z,17.43
2022-08-22T01:32:12.514Z,17.43
2022-08-22T01:33:12.505Z,17.44
2022-08-22T01:34:12.759Z,17.41
2022-08-22T01:35:12.471Z,17.41
2022-08-22T01:36:12.473Z,17.41
2022-08-22T01:37:12.462Z,17.43
2022-08-22T01:38:12.461Z,17.44
2022-08-22T01:39:12.441Z,17.47
2022-08-22T01:40:12.434Z,17.48
2022-08-22T01:41:12.432Z,17.46
2022-08-22T01:42:12.399Z,17.43
2022-08-22T01:43:12.397Z,17.38
2022-08-22T01:44:12.374Z,17.33
2022-08-22T01:45:12.384Z,17.32
2022-08-22T01:46:12.395Z,17.29
2022-08-22T01:47:13.417Z,17.28
2022-08-22T01:48:12.362Z,17.26
2022-08-22T01:49:12.331Z,17.25
2022-08-22T01:50:12.303Z,17.22
2022-08-22T01:51:12.294Z,17.22
2022-08-22T01:52:12.268Z,17.18
2022-08-22T01:53:12.255Z,17.17
2022-08-22T01:54:12.250Z,17.17
2022-08-22T01:55:12.244Z,17.20
2022-08-22T01:56:12.374Z,17.18
2022-08-22T01:57:12.179Z,17.18
2022-08-22T01:58:12.176Z,17.18
2022-08-22T01:59:12.292Z,17.17
2022-08-22T02:00:12.155Z,17.17
2022-08-22T02:01:12.236Z,17.17
2022-08-22T02:02:12.155Z,17.15
2022-08-22T02:03:12.161Z,17.15
2022-08-22T02:04:12.159Z,17.15
2022-08-22T02:05:12.070Z,17.15
2022-08-22T02:06:14.499Z,17.17
2022-08-22T02:07:12.103Z,17.15
2022-08-22T02:08:12.064Z,17.15
2022-08-22T02:09:12.076Z,17.13
2022-08-22T02:10:12.013Z,17.14
2022-08-22T02:11:12.013Z,17.14
2022-08-22T02:12:21.537Z,17.15
2022-08-22T02:13:13.064Z,17.17
2022-08-22T02:14:11.974Z,17.15
2022-08-22T02:15:11.962Z,17.14
2022-08-22T02:16:11.956Z,17.14
2022-08-22T02:17:11.912Z,17.14
2022-08-22T02:18:11.949Z,17.14
2022-08-22T02:19:11.912Z,17.13
2022-08-22T02:20:11.921Z,17.11
2022-08-22T02:21:11.862Z,17.10
2022-08-22T02:22:11.892Z,17.07
2022-08-22T02:23:11.843Z,17.04
2022-08-22T02:24:11.854Z,17.00
2022-08-22T02:25:11.869Z,16.98
2022-08-22T02:26:11.792Z,16.95
2022-08-22T02:27:11.770Z,16.93
2022-08-22T02:28:11.806Z,16.93
2022-08-22T02:29:11.770Z,16.90
2022-08-22T02:30:11.773Z,16.88
2022-08-22T02:31:11.759Z,16.83
2022-08-22T02:32:12.749Z,16.78
2022-08-22T02:33:11.702Z,16.74
2022-08-22T02:34:11.701Z,16.73
2022-08-22T02:35:11.715Z,16.70
2022-08-22T02:36:11.665Z,16.68
2022-08-22T02:37:11.694Z,16.67
2022-08-22T02:38:11.672Z,16.65
2022-08-22T02:39:11.638Z,16.62
2022-08-22T02:40:11.727Z,16.60
2022-08-22T02:41:11.583Z,16.56
2022-08-22T02:42:11.590Z,16.53
2022-08-22T02:43:11.571Z,16.55
2022-08-22T02:44:11.555Z,16.53
2022-08-22T02:45:11.522Z,16.55
2022-08-22T02:46:11.512Z,16.52
2022-08-22T02:47:11.524Z,16.52
2022-08-22T02:48:11.506Z,16.49
2022-08-22T02:49:11.569Z,16.45
2022-08-22T02:50:12.706Z,16.48
2022-08-22T02:51:11.529Z,16.48
2022-08-22T02:52:11.445Z,16.45
2022-08-22T02:53:11.462Z,16.42
2022-08-22T02:54:11.399Z,16.41
2022-08-22T02:55:11.448Z,16.40
2022-08-22T02:56:11.425Z,16.38
2022-08-22T02:57:14.339Z,16.35
2022-08-22T02:58:11.365Z,16.35
2022-08-22T02:59:11.467Z,16.34
2022-08-22T03:00:30.877Z,16.35
2022-08-22T03:01:12.415Z,16.34
2022-08-22T03:02:11.320Z,16.33
2022-08-22T03:03:11.323Z,16.34
2022-08-22T03:04:11.272Z,16.33
2022-08-22T03:05:11.292Z,16.34
2022-08-22T03:06:11.275Z,16.33
2022-08-22T03:07:11.244Z,16.34
2022-08-22T03:08:11.200Z,16.33
2022-08-22T03:09:11.193Z,16.34
2022-08-22T03:10:11.189Z,16.33
2022-08-22T03:11:11.171Z,16.31
2022-08-22T03:12:11.192Z,16.30
2022-08-22T03:13:11.162Z,16.27
2022-08-22T03:14:11.126Z,16.27
2022-08-22T03:15:11.120Z,16.23
2022-08-22T03:16:11.145Z,16.20
2022-08-22T03:17:11.129Z,16.20
2022-08-22T03:18:11.102Z,16.15
2022-08-22T03:19:14.960Z,16.15
2022-08-22T03:20:12.056Z,16.15
2022-08-22T03:21:11.039Z,16.14
2022-08-22T03:22:11.041Z,16.12
2022-08-22T03:23:11.006Z,16.09
2022-08-22T03:24:11.011Z,16.06
2022-08-22T03:25:10.996Z,16.09
2022-08-22T03:26:10.977Z,16.09
2022-08-22T03:27:10.998Z,16.11
2022-08-22T03:28:11.014Z,16.12
2022-08-22T03:29:10.924Z,16.12
2022-08-22T03:30:10.920Z,16.14
2022-08-22T03:31:10.901Z,16.14
2022-08-22T03:32:10.983Z,16.14
2022-08-22T03:33:10.885Z,16.12
2022-08-22T03:34:10.883Z,16.09
2022-08-22T03:35:10.839Z,16.06
2022-08-22T03:36:10.840Z,16.03
2022-08-22T03:37:10.829Z,16.01
2022-08-22T03:38:10.806Z,15.99
2022-08-22T03:39:17.107Z,15.97
2022-08-22T03:40:11.832Z,15.93
2022-08-22T03:41:10.782Z,15.93
2022-08-22T03:42:10.765Z,15.89
2022-08-22T03:43:10.735Z,15.89
2022-08-22T03:44:10.745Z,15.93
2022-08-22T03:45:10.707Z,15.94
2022-08-22T03:46:10.717Z,15.94
2022-08-22T03:47:10.726Z,15.94
2022-08-22T03:48:10.672Z,15.94
2022-08-22T03:49:10.664Z,15.96
2022-08-22T03:50:10.694Z,15.93
2022-08-22T03:51:10.641Z,15.94
2022-08-22T03:52:10.634Z,15.93
2022-08-22T03:53:18.820Z,15.93
2022-08-22T03:54:11.629Z,15.88
2022-08-22T03:55:10.582Z,15.88
2022-08-22T03:56:10.577Z,15.92
2022-08-22T03:57:10.549Z,15.92
2022-08-22T03:58:13.636Z,15.92
2022-08-22T03:59:11.595Z,15.88
2022-08-22T04:00:10.505Z,15.89
2022-08-22T04:01:10.587Z,15.94
2022-08-22T04:02:41.998Z,15.96
2022-08-22T04:03:11.537Z,15.92
2022-08-22T04:04:10.450Z,15.86
2022-08-22T04:05:10.429Z,15.89
2022-08-22T04:06:12.615Z,15.85
2022-08-22T04:07:19.679Z,15.86
2022-08-22T04:08:13.013Z,15.86
2022-08-22T04:09:10.617Z,15.85
2022-08-22T04:10:10.344Z,15.85
2022-08-22T04:11:10.352Z,15.85
2022-08-22T04:12:10.337Z,15.82
2022-08-22T04:13:10.330Z,15.81
2022-08-22T04:14:10.291Z,15.79
2022-08-22T04:15:10.339Z,15.79
2022-08-22T04:16:10.397Z,15.81
2022-08-22T04:17:10.287Z,15.79
2022-08-22T04:18:10.312Z,15.76
2022-08-22T04:19:10.275Z,15.74
2022-08-22T04:20:10.232Z,15.70
2022-08-22T04:21:10.243Z,15.68
2022-08-22T04:22:10.213Z,15.67
2022-08-22T04:23:10.210Z,15.67
2022-08-22T04:24:10.174Z,15.68
2022-08-22T04:25:10.190Z,15.70
2022-08-22T04:26:12.269Z,15.70
2022-08-22T04:27:10.189Z,15.72
2022-08-22T04:28:10.103Z,15.72
2022-08-22T04:29:10.148Z,15.70
2022-08-22T04:30:10.072Z,15.72
2022-08-22T04:31:10.119Z,15.74
2022-08-22T04:32:14.429Z,15.74
2022-08-22T04:33:10.327Z,15.75
2022-08-22T04:34:10.031Z,15.75
2022-08-22T04:35:10.039Z,15.75
2022-08-22T04:36:09.989Z,15.74
2022-08-22T04:37:09.998Z,15.74
2022-08-22T04:38:10.024Z,15.74
2022-08-22T04:39:10.004Z,15.72
2022-08-22T04:40:10.010Z,15.72
2022-08-22T04:41:09.966Z,15.72
2022-08-22T04:42:31.294Z,15.74
2022-08-22T04:43:10.936Z,15.74
2022-08-22T04:44:09.886Z,15.74
2022-08-22T04:45:09.897Z,15.76
2022-08-22T04:46:09.856Z,15.78
2022-08-22T04:47:09.874Z,15.81
2022-08-22T04:48:09.884Z,15.82
2022-08-22T04:49:09.835Z,15.84
2022-08-22T04:50:09.874Z,15.85
2022-08-22T04:51:09.827Z,15.86
2022-08-22T04:52:09.831Z,15.92
2022-08-22T04:53:09.802Z,16.07
2022-08-22T04:54:09.764Z,16.35
2022-08-22T04:55:09.814Z,16.62
2022-08-22T04:56:09.745Z,16.93
2022-08-22T04:57:09.720Z,17.22
2022-08-22T04:58:09.713Z,17.47
2022-08-22T04:59:09.686Z,17.69
2022-08-22T05:00:09.666Z,17.95
2022-08-22T05:01:09.661Z,18.21
2022-08-22T05:02:09.734Z,18.46
2022-08-22T05:03:09.672Z,18.76
2022-08-22T05:04:09.618Z,19.08
2022-08-22T05:05:13.468Z,19.32
2022-08-22T05:06:09.598Z,19.51
2022-08-22T05:07:09.807Z,19.66
2022-08-22T05:08:09.623Z,19.78
2022-08-22T05:09:14.159Z,19.91
2022-08-22T05:10:12.045Z,20.06
2022-08-22T05:11:09.526Z,20.16
2022-08-22T05:12:09.506Z,20.31
2022-08-22T05:13:09.493Z,20.43
2022-08-22T05:14:09.635Z,20.51
2022-08-22T05:15:09.708Z,20.65
2022-08-22T05:16:09.506Z,20.83
2022-08-22T05:17:09.473Z,21.01
2022-08-22T05:18:09.425Z,21.08
2022-08-22T05:19:12.077Z,21.23
2022-08-22T05:20:10.435Z,21.42
2022-08-22T05:21:09.449Z,21.54
2022-08-22T05:22:09.461Z,21.63
2022-08-22T05:23:17.086Z,21.72
2022-08-22T05:24:10.419Z,21.85
2022-08-22T05:25:09.362Z,21.91
2022-08-22T05:26:09.367Z,21.95
2022-08-22T05:27:09.362Z,21.98
2022-08-22T05:28:09.410Z,22.10
2022-08-22T05:29:09.283Z,22.23
2022-08-22T05:30:09.291Z,22.27
2022-08-22T05:31:09.312Z,22.41
2022-08-22T05:32:09.377Z,22.56
2022-08-22T05:33:09.239Z,22.41
2022-08-22T05:34:09.240Z,22.29
2022-08-22T05:35:09.213Z,22.16
2022-08-22T05:36:09.287Z,22.29
2022-08-22T05:37:09.180Z,22.47
2022-08-22T05:38:09.177Z,22.67
2022-08-22T05:39:09.191Z,22.82
2022-08-22T05:40:09.262Z,22.92
2022-08-22T05:41:09.135Z,22.96
2022-08-22T05:42:09.091Z,23.04
2022-08-22T05:43:09.091Z,23.02
2022-08-22T05:44:09.079Z,23.09
2022-08-22T05:45:12.207Z,23.11
2022-08-22T05:46:09.108Z,23.14
2022-08-22T05:47:09.087Z,23.32
2022-08-22T05:48:09.108Z,23.57
2022-08-22T05:49:09.013Z,23.75
2022-08-22T05:50:09.042Z,23.87
2022-08-22T05:51:09.054Z,23.85
2022-08-22T05:52:08.993Z,23.86
2022-08-22T05:53:08.973Z,23.80
2022-08-22T05:54:09.035Z,23.90
2022-08-22T05:55:09.036Z,23.98
2022-08-22T05:56:08.926Z,24.12
2022-08-22T05:57:08.994Z,24.24
2022-08-22T05:58:08.993Z,24.38
2022-08-22T05:59:08.995Z,24.26
2022-08-22T06:00:08.874Z,23.64
2022-08-22T06:01:08.867Z,22.50
2022-08-22T06:02:09.063Z,21.85
2022-08-22T06:03:08.855Z,21.35
2022-08-22T06:04:08.835Z,21.08
2022-08-22T06:05:12.031Z,20.93
2022-08-22T06:06:08.902Z,20.69
2022-08-22T06:07:08.789Z,20.72
2022-08-22T06:08:08.790Z,20.96
2022-08-22T06:09:08.817Z,21.41
2022-08-22T06:10:08.760Z,21.98
2022-08-22T06:11:08.814Z,22.38
2022-08-22T06:12:08.773Z,22.83
2022-08-22T06:13:11.549Z,23.23
2022-08-22T06:14:08.715Z,23.62
2022-08-22T06:15:11.822Z,24.01
2022-08-22T06:16:09.347Z,24.20
2022-08-22T06:17:08.674Z,23.68
2022-08-22T06:18:08.659Z,23.38
2022-08-22T06:19:19.307Z,23.82
2022-08-22T06:20:09.675Z,23.65
2022-08-22T06:21:08.660Z,23.47
2022-08-22T06:22:08.659Z,23.17
2022-08-22T06:23:08.587Z,23.12
2022-08-22T06:24:08.618Z,23.04
2022-08-22T06:25:08.630Z,22.90
2022-08-22T06:26:20.800Z,23.02
2022-08-22T06:27:09.562Z,22.96
2022-08-22T06:28:08.530Z,22.34
2022-08-22T06:29:08.549Z,21.94
2022-08-22T06:30:08.534Z,21.64
2022-08-22T06:31:08.503Z,21.54
2022-08-22T06:32:08.471Z,21.54
2022-08-22T06:33:08.460Z,21.54
2022-08-22T06:34:08.462Z,21.21
2022-08-22T06:35:08.430Z,20.56
2022-08-22T06:36:08.458Z,20.20
2022-08-22T06:37:08.404Z,20.03
2022-08-22T06:38:08.427Z,19.94
2022-08-22T06:39:08.423Z,19.94
2022-08-22T06:40:08.451Z,19.83
2022-08-22T06:41:08.380Z,19.60
2022-08-22T06:42:10.276Z,19.36
2022-08-22T06:43:08.374Z,19.15
2022-08-22T06:44:08.321Z,18.98
2022-08-22T06:45:08.384Z,18.80
2022-08-22T06:46:08.301Z,18.80
2022-08-22T06:47:08.277Z,18.91
2022-08-22T06:48:08.317Z,18.84
2022-08-22T06:49:08.253Z,18.83
2022-08-22T06:50:08.272Z,18.95
2022-08-22T06:51:09.229Z,19.14
2022-08-22T06:52:08.228Z,19.33
2022-08-22T06:53:08.211Z,19.51
2022-08-22T06:54:08.216Z,19.63
2022-08-22T06:55:08.190Z,19.70
2022-08-22T06:56:08.164Z,19.72
2022-08-22T06:57:08.161Z,19.75
2022-08-22T06:58:08.124Z,19.84
2022-08-22T06:59:08.126Z,19.88
2022-08-22T07:00:08.145Z,19.94
2022-08-22T07:01:12.310Z,20.06
2022-08-22T07:02:08.134Z,20.09
2022-08-22T07:03:08.057Z,19.98
2022-08-22T07:04:08.044Z,19.93
2022-08-22T07:05:08.025Z,19.87
2022-08-22T07:06:08.105Z,19.86
2022-08-22T07:07:08.002Z,19.83
2022-08-22T07:08:07.994Z,19.80
2022-08-22T07:09:07.974Z,19.78
2022-08-22T07:10:08.040Z,19.73
2022-08-22T07:11:08.007Z,19.75
2022-08-22T07:12:08.014Z,19.75
2022-08-22T07:13:07.930Z,19.75
2022-08-22T07:14:07.936Z,19.78
2022-08-22T07:15:07.924Z,19.84
2022-08-22T07:16:07.885Z,19.90
2022-08-22T07:17:07.895Z,19.95
2022-08-22T07:18:07.905Z,19.94
2022-08-22T07:19:07.846Z,20.00
2022-08-22T07:20:07.832Z,20.09
2022-08-22T07:21:07.849Z,20.13
2022-08-22T07:22:07.808Z,20.20
2022-08-22T07:23:07.828Z,20.23
2022-08-22T07:24:07.826Z,20.20
2022-08-22T07:25:07.764Z,20.12
2022-08-22T07:26:07.775Z,20.10
2022-08-22T07:27:07.736Z,20.15
2022-08-22T07:28:07.788Z,20.27
2022-08-22T07:29:11.219Z,20.34
2022-08-22T07:30:10.155Z,20.41
2022-08-22T07:31:07.710Z,20.49
2022-08-22T07:32:07.709Z,20.56
2022-08-22T07:33:26.622Z,20.68
2022-08-22T07:34:08.694Z,20.69
2022-08-22T07:35:07.636Z,20.76
2022-08-22T07:36:07.690Z,20.80
2022-08-22T07:37:07.684Z,20.86
2022-08-22T07:38:07.609Z,20.95
2022-08-22T07:39:07.642Z,21.02
2022-08-22T07:40:07.668Z,21.08
2022-08-22T07:41:07.559Z,21.13
2022-08-22T07:42:07.600Z,21.14
2022-08-22T07:43:07.538Z,21.11
2022-08-22T07:44:07.559Z,21.13
2022-08-22T07:45:07.551Z,21.13
2022-08-22T07:46:07.477Z,21.17
2022-08-22T07:47:07.500Z,21.16
2022-08-22T07:48:07.524Z,21.08
2022-08-22T07:49:09.372Z,20.98
2022-08-22T07:50:07.438Z,20.96
2022-08-22T07:51:07.437Z,20.95
2022-08-22T07:52:07.513Z,20.98
2022-08-22T07:53:07.536Z,21.02
2022-08-22T07:54:07.409Z,21.02
2022-08-22T07:55:07.359Z,21.05
2022-08-22T07:56:07.402Z,21.06
2022-08-22T07:57:07.338Z,21.11
2022-08-22T07:58:07.428Z,21.14
2022-08-22T07:59:12.704Z,21.14
2022-08-22T08:00:08.299Z,21.19
2022-08-22T08:01:07.312Z,21.20
2022-08-22T08:02:07.299Z,21.23
2022-08-22T08:03:07.250Z,21.26
2022-08-22T08:04:07.310Z,21.27
2022-08-22T08:05:07.266Z,21.32
2022-08-22T08:06:07.260Z,21.36
2022-08-22T08:07:07.213Z,21.44
2022-08-22T08:08:07.290Z,21.54
2022-08-22T08:09:07.210Z,21.64
2022-08-22T08:10:12.424Z,21.72
2022-08-22T08:11:08.171Z,21.78
2022-08-22T08:12:07.181Z,21.83
2022-08-22T08:13:07.191Z,21.88
2022-08-22T08:14:07.171Z,21.88
2022-08-22T08:15:07.167Z,21.92
2022-08-22T08:16:07.124Z,21.95
2022-08-22T08:17:07.140Z,22.02
2022-08-22T08:18:07.065Z,22.10
2022-08-22T08:19:07.031Z,22.12
2022-08-22T08:20:07.031Z,22.10
2022-08-22T08:21:07.167Z,22.12
2022-08-22T08:22:07.011Z,22.10
2022-08-22T08:23:07.879Z,22.09
2022-08-22T08:24:06.971Z,22.06
2022-08-22T08:25:06.991Z,22.04
2022-08-22T08:26:06.946Z,22.02
2022-08-22T08:27:06.962Z,22.07
2022-08-22T08:28:06.962Z,22.14
2022-08-22T08:29:06.922Z,22.22
2022-08-22T08:30:06.967Z,22.29
2022-08-22T08:31:06.895Z,22.37
2022-08-22T08:32:06.865Z,22.44
2022-08-22T08:33:25.137Z,22.52
2022-08-22T08:34:07.853Z,22.59
2022-08-22T08:35:06.992Z,22.60
2022-08-22T08:36:07.071Z,22.64
2022-08-22T08:37:06.857Z,22.60
2022-08-22T08:38:06.793Z,22.65
2022-08-22T08:39:06.773Z,22.64
2022-08-22T08:40:06.840Z,22.57
2022-08-22T08:41:06.742Z,22.60
2022-08-22T08:42:06.742Z,22.62
2022-08-22T08:43:10.633Z,22.59
2022-08-22T08:44:06.722Z,22.62
2022-08-22T08:45:06.734Z,22.65
2022-08-22T08:46:06.709Z,22.67
2022-08-22T08:47:06.693Z,22.72
2022-08-22T08:48:06.728Z,22.72
2022-08-22T08:49:06.718Z,22.75
2022-08-22T08:50:06.675Z,22.82
2022-08-22T08:51:06.735Z,22.86
2022-08-22T08:52:06.697Z,22.90
2022-08-22T08:53:06.615Z,22.96
2022-08-22T08:54:06.578Z,23.04
2022-08-22T08:55:20.006Z,23.09
2022-08-22T08:56:07.599Z,23.15
2022-08-22T08:57:06.588Z,23.20
2022-08-22T08:58:06.910Z,23.22
2022-08-22T08:59:10.113Z,23.26
2022-08-22T09:00:06.502Z,23.27
2022-08-22T09:01:06.564Z,23.32
2022-08-22T09:02:06.505Z,23.35
2022-08-22T09:03:07.337Z,23.38
2022-08-22T09:04:06.494Z,23.34
2022-08-22T09:05:07.583Z,23.31
2022-08-22T09:06:06.458Z,23.34
2022-08-22T09:07:06.588Z,23.39
2022-08-22T09:08:06.406Z,23.43
2022-08-22T09:09:07.363Z,23.42
2022-08-22T09:10:06.357Z,23.43
2022-08-22T09:11:09.814Z,23.45
2022-08-22T09:12:06.337Z,23.49
2022-08-22T09:13:11.869Z,23.55
2022-08-22T09:14:07.302Z,23.61
2022-08-22T09:15:12.830Z,23.65
2022-08-22T09:16:07.285Z,23.70
2022-08-22T09:17:06.821Z,23.77
2022-08-22T09:18:06.246Z,23.82
2022-08-22T09:19:06.219Z,23.87
2022-08-22T09:20:17.640Z,23.92
2022-08-22T09:21:07.258Z,23.97
2022-08-22T09:22:06.257Z,24.00
2022-08-22T09:23:10.898Z,24.05
2022-08-22T09:24:06.154Z,24.10
2022-08-22T09:25:06.506Z,24.13
2022-08-22T09:26:06.183Z,24.16
2022-08-22T09:27:08.518Z,24.19
2022-08-22T09:28:06.136Z,24.22
2022-08-22T09:29:06.149Z,24.27
2022-08-22T09:30:06.100Z,24.29
2022-08-22T09:31:16.995Z,24.32
2022-08-22T09:32:07.085Z,24.35
2022-08-22T09:33:07.089Z,24.39
2022-08-22T09:34:06.030Z,24.47
2022-08-22T09:35:06.024Z,24.52
2022-08-22T09:36:06.024Z,24.57
2022-08-22T09:37:07.030Z,24.64
2022-08-22T09:38:06.013Z,24.68
2022-08-22T09:39:05.988Z,24.73
2022-08-22T09:40:06.010Z,24.77
2022-08-22T09:41:05.989Z,24.87
2022-08-22T09:42:05.919Z,24.91
2022-08-22T09:43:05.947Z,25.00
2022-08-22T09:44:05.921Z,25.05
2022-08-22T09:45:05.951Z,25.10
2022-08-22T09:46:05.913Z,25.15
2022-08-22T09:47:05.848Z,25.20
2022-08-22T09:48:07.092Z,25.25
2022-08-22T09:49:06.586Z,25.31
2022-08-22T09:50:05.810Z,25.39
2022-08-22T09:51:31.681Z,25.47
2022-08-22T09:52:15.740Z,25.47
2022-08-22T09:53:06.784Z,25.47
2022-08-22T09:54:05.751Z,25.49
2022-08-22T09:55:08.552Z,25.52
2022-08-22T09:56:11.664Z,25.56
2022-08-22T09:57:06.816Z,25.59
2022-08-22T09:58:05.764Z,25.65
2022-08-22T09:59:06.849Z,25.65
2022-08-22T10:00:05.712Z,25.71
2022-08-22T10:01:05.775Z,25.75
2022-08-22T10:02:06.023Z,25.79
2022-08-22T10:03:05.716Z,25.84
2022-08-22T10:04:05.882Z,25.90
2022-08-22T10:05:05.643Z,25.93
2022-08-22T10:06:05.656Z,26.09
2022-08-22T10:07:11.220Z,26.24
2022-08-22T10:08:06.617Z,26.29
2022-08-22T10:09:05.571Z,26.35
2022-08-22T10:10:05.580Z,26.39
2022-08-22T10:11:06.602Z,26.37
2022-08-22T10:12:05.545Z,26.36
2022-08-22T10:13:10.300Z,26.39
2022-08-22T10:14:05.574Z,26.37
2022-08-22T10:15:06.939Z,26.36
2022-08-22T10:16:05.513Z,26.29
2022-08-22T10:17:05.473Z,26.28
2022-08-22T10:18:05.493Z,26.25
2022-08-22T10:19:05.435Z,26.24
2022-08-22T10:20:05.419Z,26.22
2022-08-22T10:21:16.847Z,26.20
2022-08-22T10:22:05.365Z,26.21
2022-08-22T10:23:05.359Z,26.21
2022-08-22T10:24:06.996Z,26.27
2022-08-22T10:25:05.422Z,26.35
2022-08-22T10:26:05.315Z,26.37
2022-08-22T10:27:05.358Z,26.42
2022-08-22T10:28:05.336Z,26.50
2022-08-22T10:29:05.285Z,26.55
2022-08-22T10:30:05.316Z,26.61
2022-08-22T10:31:05.347Z,26.65
2022-08-22T10:32:14.463Z,26.69
2022-08-22T10:33:06.317Z,26.72
2022-08-22T10:34:05.281Z,26.69
2022-08-22T10:35:06.341Z,26.72
2022-08-22T10:36:05.392Z,26.73
2022-08-22T10:37:05.229Z,26.68
2022-08-22T10:38:05.177Z,26.64
2022-08-22T10:39:11.015Z,26.61
2022-08-22T10:40:06.179Z,26.62
2022-08-22T10:41:09.232Z,26.62
2022-08-22T10:42:05.109Z,26.64
2022-08-22T10:43:05.139Z,26.64
2022-08-22T10:44:05.114Z,26.67
2022-08-22T10:45:05.086Z,26.68
2022-08-22T10:46:06.679Z,26.65
2022-08-22T10:47:05.035Z,26.72
2022-08-22T10:48:07.238Z,26.69
2022-08-22T10:49:07.860Z,26.69
2022-08-22T10:50:08.682Z,26.72
2022-08-22T10:51:08.905Z,26.68
2022-08-22T10:52:14.694Z,26.74
2022-08-22T10:53:05.979Z,26.77
2022-08-22T10:54:04.996Z,26.83
2022-08-22T10:55:05.738Z,26.92
2022-08-22T10:56:04.970Z,27.05
2022-08-22T10:57:06.651Z,27.11
2022-08-22T10:58:04.974Z,27.19
2022-08-22T10:59:04.904Z,27.21
2022-08-22T11:00:04.880Z,27.24
2022-08-22T11:01:41.580Z,27.24
2022-08-22T11:02:05.898Z,27.20
2022-08-22T11:03:04.882Z,27.23
2022-08-22T11:04:05.944Z,27.29
2022-08-22T11:05:04.791Z,27.38
2022-08-22T11:06:04.771Z,27.47
2022-08-22T11:07:04.855Z,27.51
2022-08-22T11:08:04.772Z,27.39
2022-08-22T11:09:04.794Z,27.39
2022-08-22T11:10:05.041Z,27.46
2022-08-22T11:11:04.758Z,27.41
2022-08-22T11:12:04.765Z,27.36
2022-08-22T11:13:04.688Z,27.41
2022-08-22T11:14:04.669Z,27.50
2022-08-22T11:15:04.686Z,27.54
2022-08-22T11:16:04.705Z,27.58
2022-08-22T11:17:23.577Z,27.57
2022-08-22T11:18:05.970Z,27.47
2022-08-22T11:19:14.883Z,27.38
2022-08-22T11:20:05.652Z,27.43
2022-08-22T11:21:04.654Z,27.47
2022-08-22T11:22:04.603Z,27.47
2022-08-22T11:23:04.542Z,27.53
2022-08-22T11:24:04.717Z,27.64
2022-08-22T11:25:43.755Z,27.73
2022-08-22T11:26:04.957Z,27.71
2022-08-22T11:27:07.274Z,27.79
2022-08-22T11:28:04.487Z,27.82
2022-08-22T11:29:13.817Z,27.85
2022-08-22T11:30:05.703Z,27.85
2022-08-22T11:31:07.192Z,27.67
2022-08-22T11:32:05.939Z,27.48
2022-08-22T11:33:04.926Z,27.39
2022-08-22T11:34:04.563Z,27.38
2022-08-22T11:35:04.425Z,27.46
2022-08-22T11:36:05.603Z,27.51
2022-08-22T11:37:10.965Z,27.51
2022-08-22T11:38:05.478Z,27.57
2022-08-22T11:39:05.497Z,27.67
2022-08-22T11:40:04.447Z,27.71
2022-08-22T11:41:04.346Z,27.79
2022-08-22T11:42:04.313Z,27.76
2022-08-22T11:43:04.627Z,27.73
2022-08-22T11:44:04.317Z,27.80
2022-08-22T11:45:04.248Z,27.79
2022-08-22T11:46:04.310Z,27.66
2022-08-22T11:47:04.235Z,27.57
2022-08-22T11:48:04.288Z,27.51
2022-08-22T11:49:04.335Z,27.48
2022-08-22T11:50:04.228Z,27.50
2022-08-22T11:51:13.280Z,27.53
2022-08-22T11:52:05.220Z,27.67
2022-08-22T11:53:04.630Z,27.80
2022-08-22T11:54:04.166Z,27.80
2022-08-22T11:55:04.213Z,27.61
2022-08-22T11:56:05.497Z,27.54
2022-08-22T11:57:04.158Z,27.58
2022-08-22T11:58:04.140Z,27.57
2022-08-22T11:59:04.084Z,27.62
2022-08-22T12:00:04.103Z,27.69
2022-08-22T12:01:04.071Z,27.80
2022-08-22T12:02:04.275Z,27.79
2022-08-22T12:03:04.061Z,27.73
2022-08-22T12:04:04.144Z,27.70
2022-08-22T12:05:03.999Z,27.73
2022-08-22T12:06:03.978Z,27.82
2022-08-22T12:07:04.011Z,27.89
2022-08-22T12:08:04.022Z,27.92
2022-08-22T12:09:04.152Z,27.96
2022-08-22T12:10:03.955Z,27.99
2022-08-22T12:11:04.002Z,27.88
2022-08-22T12:12:04.740Z,27.79
2022-08-22T12:13:03.899Z,27.84
2022-08-22T12:14:06.216Z,27.94
2022-08-22T12:15:03.912Z,28.13
2022-08-22T12:16:04.037Z,28.25
2022-08-22T12:17:03.823Z,28.35
2022-08-22T12:18:03.877Z,28.40
2022-08-22T12:19:03.844Z,28.29
2022-08-22T12:20:18.919Z,28.26
2022-08-22T12:21:04.821Z,28.22
2022-08-22T12:22:04.086Z,28.11
2022-08-22T12:23:04.138Z,28.14
2022-08-22T12:24:06.321Z,28.14
2022-08-22T12:25:04.896Z,28.11
2022-08-22T12:26:04.912Z,28.13
2022-08-22T12:27:06.463Z,28.19
2022-08-22T12:28:03.764Z,28.25
2022-08-22T12:29:03.695Z,28.25
2022-08-22T12:30:03.674Z,28.25
2022-08-22T12:31:03.728Z,28.28
2022-08-22T12:32:03.675Z,28.29
2022-08-22T12:33:03.629Z,28.33
2022-08-22T12:34:03.647Z,28.41
2022-08-22T12:35:03.576Z,28.54
2022-08-22T12:36:04.893Z,28.66
2022-08-22T12:37:03.596Z,28.70
2022-08-22T12:38:03.831Z,28.66
2022-08-22T12:39:04.585Z,28.66
2022-08-22T12:40:03.563Z,28.65
2022-08-22T12:41:03.509Z,28.60
2022-08-22T12:42:04.143Z,28.56
2022-08-22T12:43:03.567Z,28.56
2022-08-22T12:44:03.471Z,28.53
2022-08-22T12:45:03.626Z,28.51
2022-08-22T12:46:03.468Z,28.53
2022-08-22T12:47:04.231Z,28.53